createdAt,value
2022-12-04T00:00:22.511Z,94346.69
2022-12-04T00:02:49.126Z,94359.09
2022-12-04T00:05:15.797Z,94359.16
2022-12-04T00:07:42.414Z,94353.28
2022-12-04T00:10:10.114Z,94349.03
2022-12-04T00:12:36.657Z,94340.19
2022-12-04T00:17:52.087Z,94337.25
2022-12-04T00:20:18.616Z,94340.25
2022-12-04T00:22:45.169Z,94327.59
2022-12-04T00:25:11.695Z,94337.03
2022-12-04T00:27:38.223Z,94328.38
2022-12-04T00:30:07.725Z,94332.63
2022-12-04T00:32:34.260Z,94321.75
2022-12-04T00:35:00.792Z,94315.31
2022-12-04T00:37:27.366Z,94315.91
2022-12-04T00:39:54.203Z,94325.75
2022-12-04T00:42:20.928Z,94324.56
2022-12-04T00:44:47.524Z,94334.22
2022-12-04T00:47:15.377Z,94331.22
2022-12-04T00:49:41.914Z,94332.78
2022-12-04T00:52:08.434Z,94334.22
2022-12-04T00:54:34.951Z,94332.41
2022-12-04T00:57:01.495Z,94339.75
2022-12-04T00:59:28.024Z,94334.22
2022-12-04T01:01:54.530Z,94341.06
2022-12-04T01:04:22.458Z,94337.84
2022-12-04T01:06:49.053Z,94343.69
2022-12-04T01:09:15.587Z,94343.88
2022-12-04T01:11:42.139Z,94341.28
2022-12-04T01:14:08.706Z,94337.84
2022-12-04T01:16:37.450Z,94327.19
2022-12-04T01:19:05.392Z,94338.78
2022-12-04T01:21:33.633Z,94334.97
2022-12-04T01:24:00.363Z,94326.19
2022-12-04T01:26:27.249Z,94323.97
2022-12-04T01:28:53.998Z,94326.78
2022-12-04T01:31:21.877Z,94318.94
2022-12-04T01:33:49.833Z,94320.34
2022-12-04T01:36:19.859Z,94323.34
2022-12-04T01:38:47.924Z,94311.88
2022-12-04T01:41:17.029Z,94322.16
2022-12-04T01:43:44.159Z,94313.50
2022-12-04T01:46:11.285Z,94319.53
2022-12-04T01:48:41.812Z,94314.28
2022-12-04T01:51:14.997Z,94302.81
2022-12-04T01:53:46.877Z,94309.06
2022-12-04T01:56:14.966Z,94298.59
2022-12-04T01:58:46.151Z,94295.16
2022-12-04T02:01:12.760Z,94299.00
2022-12-04T02:03:40.649Z,94293.38
2022-12-04T02:06:07.346Z,94302.50
2022-12-04T02:08:36.083Z,94288.16
2022-12-04T02:11:12.967Z,94291.97
2022-12-04T02:13:49.241Z,94285.72
2022-12-04T02:16:23.528Z,94296.00
2022-12-04T02:18:58.987Z,94284.72
2022-12-04T02:21:31.750Z,94290.56
2022-12-04T02:24:21.780Z,94286.94
2022-12-04T02:26:53.528Z,94283.09
2022-12-04T02:29:34.981Z,94276.47
2022-12-04T02:32:09.752Z,94284.91
2022-12-04T02:34:42.092Z,94296.28
2022-12-04T02:37:12.798Z,94302.88
2022-12-04T02:39:44.633Z,94296.13
2022-12-04T02:42:15.610Z,94291.56
2022-12-04T02:44:46.562Z,94290.75
2022-12-04T02:47:18.194Z,94304.78
2022-12-04T02:49:47.403Z,94295.78
2022-12-04T02:52:21.566Z,94298.84
2022-12-04T02:54:51.449Z,94303.59
2022-12-04T02:57:23.197Z,94302.63
2022-12-04T02:59:54.053Z,94295.34
2022-12-04T03:02:25.373Z,94300.16
2022-12-04T03:04:55.940Z,94299.28
2022-12-04T03:07:27.480Z,94299.53
2022-12-04T03:09:58.107Z,94288.94
2022-12-04T03:12:30.165Z,94300.81
2022-12-04T03:15:02.613Z,94298.06
2022-12-04T03:17:33.222Z,94300.94
2022-12-04T03:20:05.498Z,94286.38
2022-12-04T03:22:36.629Z,94291.16
2022-12-04T03:25:04.628Z,94283.25
2022-12-04T03:27:35.594Z,94273.56
2022-12-04T03:30:07.045Z,94265.19
2022-12-04T03:32:38.805Z,94264.53
2022-12-04T03:35:12.127Z,94260.19
2022-12-04T03:37:43.157Z,94254.94
2022-12-04T03:40:17.338Z,94255.47
2022-12-04T03:42:48.767Z,94267.16
2022-12-04T03:45:22.181Z,94265.38
2022-12-04T03:47:57.267Z,94262.19
2022-12-04T03:50:33.455Z,94266.22
2022-12-04T03:53:06.616Z,94275.47
2022-12-04T03:55:39.455Z,94268.63
2022-12-04T03:58:12.880Z,94273.66
2022-12-04T04:00:43.132Z,94272.25
2022-12-04T04:03:14.220Z,94271.03
2022-12-04T04:05:45.710Z,94267.41
2022-12-04T04:08:29.908Z,94272.16
2022-12-04T04:11:01.947Z,94266.56
2022-12-04T04:13:52.675Z,94264.63
2022-12-04T04:16:43.403Z,94258.97
2022-12-04T04:19:32.227Z,94256.97
2022-12-04T04:22:18.604Z,94255.75
2022-12-04T04:24:47.444Z,94247.28
2022-12-04T04:27:14.453Z,94243.66
2022-12-04T04:29:45.588Z,94247.28
2022-12-04T04:32:24.271Z,94246.88
2022-12-04T04:34:57.927Z,94247.69
2022-12-04T04:37:32.107Z,94241.47
2022-12-04T04:40:05.664Z,94244.88
2022-12-04T04:42:36.432Z,94253.31
2022-12-04T04:45:08.820Z,94249.31
2022-12-04T04:47:44.787Z,94247.28
2022-12-04T04:50:14.468Z,94238.84
2022-12-04T04:52:43.402Z,94237.84
2022-12-04T04:55:10.864Z,94244.06
2022-12-04T04:57:37.480Z,94256.16
2022-12-04T05:00:07.389Z,94254.34
2022-12-04T05:02:34.458Z,94254.53
2022-12-04T05:05:02.387Z,94254.34
2022-12-04T05:07:29.064Z,94249.91
2022-12-04T05:09:56.023Z,94247.28
2022-12-04T05:12:22.904Z,94245.28
2022-12-04T05:14:49.469Z,94242.25
2022-12-04T05:17:16.228Z,94244.31
2022-12-04T05:19:55.422Z,94240.88
2022-12-04T05:22:26.812Z,94240.25
2022-12-04T05:24:53.977Z,94238.25
2022-12-04T05:27:20.989Z,94239.44
2022-12-04T05:29:47.596Z,94243.09
2022-12-04T05:32:14.934Z,94241.69
2022-12-04T05:34:41.568Z,94241.88
2022-12-04T05:37:08.132Z,94236.22
2022-12-04T05:39:36.089Z,94231.78
2022-12-04T05:42:02.971Z,94239.66
2022-12-04T05:44:29.529Z,94240.16
2022-12-04T05:46:56.169Z,94252.56
2022-12-04T05:49:22.956Z,94255.75
2022-12-04T05:51:50.314Z,94260.00
2022-12-04T05:54:16.936Z,94245.88
2022-12-04T05:56:44.809Z,94251.28
2022-12-04T05:59:11.829Z,94236.59
2022-12-04T06:01:38.523Z,94237.66
2022-12-04T06:04:05.184Z,94232.44
2022-12-04T06:06:31.797Z,94225.78
2022-12-04T06:08:59.943Z,94231.81
2022-12-04T06:11:28.736Z,94223.59
2022-12-04T06:13:58.543Z,94232.44
2022-12-04T06:16:27.812Z,94235.66
2022-12-04T06:18:56.185Z,94245.66
2022-12-04T06:21:24.586Z,94248.72
2022-12-04T06:23:51.501Z,94239.47
2022-12-04T06:26:19.057Z,94240.28
2022-12-04T06:28:46.015Z,94234.41
2022-12-04T06:31:16.044Z,94229.59
2022-12-04T06:33:42.850Z,94229.00
2022-12-04T06:36:12.237Z,94235.63
2022-12-04T06:38:39.256Z,94233.16
2022-12-04T06:41:07.038Z,94224.28
2022-12-04T06:43:33.960Z,94214.09
2022-12-04T06:46:01.026Z,94215.75
2022-12-04T06:48:29.492Z,94219.16
2022-12-04T06:51:00.467Z,94222.53
2022-12-04T06:53:27.776Z,94230.81
2022-12-04T06:55:54.929Z,94231.00
2022-12-04T06:58:21.525Z,94235.84
2022-12-04T07:00:48.104Z,94228.34
2022-12-04T07:03:14.702Z,94236.38
2022-12-04T07:05:42.721Z,94234.13
2022-12-04T07:08:09.364Z,94243.31
2022-12-04T07:10:36.495Z,94237.81
2022-12-04T07:13:03.057Z,94250.44
2022-12-04T07:15:29.685Z,94242.34
2022-12-04T07:17:56.326Z,94242.25
2022-12-04T07:20:22.876Z,94236.78
2022-12-04T07:22:50.908Z,94246.97
2022-12-04T07:25:17.875Z,94237.97
2022-12-04T07:27:44.678Z,94240.44
2022-12-04T07:30:15.706Z,94240.28
2022-12-04T07:32:42.569Z,94237.06
2022-12-04T07:35:09.537Z,94260.31
2022-12-04T07:37:36.648Z,94261.41
2022-12-04T07:40:06.093Z,94256.31
2022-12-04T07:42:32.627Z,94266.03
2022-12-04T07:44:59.166Z,94264.00
2022-12-04T07:47:25.710Z,94278.41
2022-12-04T07:49:52.479Z,94282.91
2022-12-04T07:52:19.176Z,94276.63
2022-12-04T07:54:45.731Z,94287.97
2022-12-04T07:57:13.615Z,94297.22
2022-12-04T07:59:40.144Z,94298.78
2022-12-04T08:02:06.988Z,94312.66
2022-12-04T08:04:33.640Z,94307.53
2022-12-04T08:07:00.223Z,94299.28
2022-12-04T08:09:26.805Z,94293.94
2022-12-04T08:11:53.346Z,94301.34
2022-12-04T08:14:21.457Z,94302.75
2022-12-04T08:16:52.738Z,94305.13
2022-12-04T08:19:19.851Z,94310.56
2022-12-04T08:21:46.386Z,94313.22
2022-12-04T08:24:12.946Z,94312.06
2022-12-04T08:26:39.520Z,94311.63
2022-12-04T08:29:06.587Z,94304.28
2022-12-04T08:31:36.175Z,94302.97
2022-12-04T08:34:03.910Z,94305.75
2022-12-04T08:36:30.816Z,94300.44
2022-12-04T08:38:57.374Z,94297.31
2022-12-04T08:41:26.188Z,94299.50
2022-12-04T08:43:54.872Z,94297.69
2022-12-04T08:46:22.870Z,94290.09
2022-12-04T08:48:51.079Z,94288.28
2022-12-04T08:51:19.996Z,94290.72
2022-12-04T08:53:47.051Z,94286.03
2022-12-04T08:56:14.351Z,94285.66
2022-12-04T08:58:40.916Z,94276.03
2022-12-04T09:01:08.940Z,94267.19
2022-12-04T09:03:35.801Z,94266.44
2022-12-04T09:06:05.519Z,94259.78
2022-12-04T09:08:32.094Z,94263.78
2022-12-04T09:11:02.767Z,94271.25
2022-12-04T09:13:29.293Z,94269.25
2022-12-04T09:15:55.896Z,94279.28
2022-12-04T09:18:22.563Z,94281.72
2022-12-04T09:20:55.489Z,94282.13
2022-12-04T09:23:23.478Z,94282.13
2022-12-04T09:25:50.054Z,94283.13
2022-12-04T09:28:16.685Z,94281.91
2022-12-04T09:30:43.234Z,94274.88
2022-12-04T09:33:09.875Z,94260.78
2022-12-04T09:35:38.183Z,94265.00
2022-12-04T09:38:04.730Z,94270.25
2022-12-04T09:40:45.620Z,94286.06
2022-12-04T09:43:26.626Z,94286.72
2022-12-04T09:45:55.641Z,94275.53
2022-12-04T09:48:28.876Z,94269.50
2022-12-04T09:50:56.297Z,94264.94
2022-12-04T09:53:27.357Z,94263.28
2022-12-04T09:56:01.373Z,94237.25
2022-12-04T09:58:33.834Z,94235.66
2022-12-04T10:01:03.120Z,94233.25
2022-12-04T10:03:31.084Z,94229.63
2022-12-04T10:06:06.954Z,94213.13
2022-12-04T10:08:35.946Z,94199.44
2022-12-04T10:11:12.931Z,94222.72
2022-12-04T10:14:03.203Z,94200.13
2022-12-04T10:16:40.033Z,94186.13
2022-12-04T10:19:15.452Z,94203.84
2022-12-04T10:21:51.934Z,94209.81
2022-12-04T10:24:34.654Z,94213.50
2022-12-04T10:27:09.502Z,94204.69
2022-12-04T10:29:38.834Z,94213.53
2022-12-04T10:32:16.770Z,94220.56
2022-12-04T10:34:45.744Z,94214.25
2022-12-04T10:37:14.328Z,94204.56
2022-12-04T10:39:44.903Z,94208.72
2022-12-04T10:42:21.573Z,94196.59
2022-12-04T10:44:48.264Z,94198.69
2022-12-04T10:47:14.926Z,94193.06
2022-12-04T10:49:41.674Z,94192.38
2022-12-04T10:52:11.497Z,94199.97
2022-12-04T10:54:43.727Z,94203.59
2022-12-04T10:57:13.921Z,94198.19
2022-12-04T10:59:49.564Z,94199.34
2022-12-04T11:02:21.490Z,94196.69
2022-12-04T11:04:54.246Z,94205.25
2022-12-04T11:07:23.392Z,94207.94
2022-12-04T11:09:56.158Z,94201.00
2022-12-04T11:12:24.309Z,94200.59
2022-12-04T11:15:00.048Z,94188.75
2022-12-04T11:17:26.613Z,94186.75
2022-12-04T11:19:59.643Z,94181.72
2022-12-04T11:22:26.314Z,94181.13
2022-12-04T11:24:55.407Z,94163.44
2022-12-04T11:27:27.285Z,94167.88
2022-12-04T11:29:55.395Z,94172.88
2022-12-04T11:32:25.044Z,94144.34
2022-12-04T11:34:54.010Z,94152.41
2022-12-04T11:37:25.088Z,94157.63
2022-12-04T11:39:53.275Z,94156.00
2022-12-04T11:42:25.454Z,94156.22
2022-12-04T11:44:54.456Z,94163.84
2022-12-04T11:47:23.440Z,94163.25
2022-12-04T11:50:03.541Z,94157.63
2022-12-04T11:52:45.598Z,94163.03
2022-12-04T11:55:17.527Z,94156.00
2022-12-04T11:57:53.882Z,94159.63
2022-12-04T12:00:22.679Z,94164.44
2022-12-04T12:03:13.346Z,94158.59
2022-12-04T12:05:53.723Z,94159.22
2022-12-04T12:08:33.356Z,94159.41
2022-12-04T12:11:10.529Z,94158.59
2022-12-04T12:13:49.764Z,94147.34
2022-12-04T12:16:25.941Z,94149.97
2022-12-04T12:19:08.312Z,94154.78
2022-12-04T12:21:45.951Z,94157.81
2022-12-04T12:24:24.874Z,94144.34
2022-12-04T12:27:03.204Z,94140.94
2022-12-04T12:29:44.160Z,94131.03
2022-12-04T12:32:29.485Z,94134.03
2022-12-04T12:34:56.274Z,94130.47
2022-12-04T12:37:28.074Z,94128.88
2022-12-04T12:39:59.913Z,94129.09
2022-12-04T12:42:31.457Z,94126.28
2022-12-04T12:45:06.401Z,94138.06
2022-12-04T12:47:40.972Z,94119.25
2022-12-04T12:50:15.557Z,94131.47
2022-12-04T12:52:49.452Z,94122.41
2022-12-04T12:55:21.137Z,94127.66
2022-12-04T12:57:55.853Z,94122.38
2022-12-04T13:00:24.483Z,94119.97
2022-12-04T13:02:58.358Z,94130.66
2022-12-04T13:05:30.389Z,94113.75
2022-12-04T13:08:03.393Z,94115.41
2022-12-04T13:10:35.247Z,94105.75
2022-12-04T13:13:06.643Z,94116.00
2022-12-04T13:15:39.921Z,94110.13
2022-12-04T13:18:09.209Z,94113.81
2022-12-04T13:20:44.333Z,94114.59
2022-12-04T13:23:22.894Z,94111.94
2022-12-04T13:26:01.163Z,94123.19
2022-12-04T13:28:44.808Z,94112.13
2022-12-04T13:31:25.660Z,94121.78
2022-12-04T13:34:12.563Z,94128.25
2022-12-04T13:37:06.976Z,94136.84
2022-12-04T13:40:02.016Z,94132.19
2022-12-04T13:42:29.032Z,94122.75
2022-12-04T13:44:58.635Z,94105.22
2022-12-04T13:47:30.649Z,94127.34
2022-12-04T13:50:22.687Z,94134.00
2022-12-04T13:52:49.366Z,94130.38
2022-12-04T13:55:28.841Z,94126.13
2022-12-04T13:57:57.073Z,94138.31
2022-12-04T14:00:28.288Z,94141.09
2022-12-04T14:02:58.849Z,94140.13
2022-12-04T14:05:28.380Z,94137.41
2022-12-04T14:08:07.249Z,94141.94
2022-12-04T14:10:36.447Z,94145.13
2022-12-04T14:13:06.477Z,94149.38
2022-12-04T14:15:37.039Z,94152.94
2022-12-04T14:18:18.950Z,94143.84
2022-12-04T14:20:45.524Z,94141.34
2022-12-04T14:23:36.494Z,94149.34
2022-12-04T14:26:05.243Z,94150.78
2022-12-04T14:28:42.586Z,94153.59
2022-12-04T14:31:19.365Z,94151.56
2022-12-04T14:33:52.424Z,94151.56
2022-12-04T14:36:24.679Z,94157.63
2022-12-04T14:39:01.189Z,94160.63
2022-12-04T14:41:27.721Z,94169.44
2022-12-04T14:43:56.238Z,94166.63
2022-12-04T14:46:28.214Z,94174.25
2022-12-04T14:49:06.409Z,94181.09
2022-12-04T14:51:36.436Z,94179.69
2022-12-04T14:54:11.070Z,94191.16
2022-12-04T14:56:50.935Z,94192.75
2022-12-04T14:59:19.169Z,94198.81
2022-12-04T15:01:48.221Z,94195.38
2022-12-04T15:04:23.160Z,94205.22
2022-12-04T15:06:55.411Z,94203.22
2022-12-04T15:09:44.463Z,94219.34
2022-12-04T15:12:36.252Z,94222.16
2022-12-04T15:15:13.735Z,94217.13
2022-12-04T15:17:40.428Z,94216.09
2022-12-04T15:20:16.887Z,94221.94
2022-12-04T15:22:43.714Z,94224.16
2022-12-04T15:25:18.184Z,94225.78
2022-12-04T15:27:46.345Z,94236.72
2022-12-04T15:30:18.949Z,94228.34
2022-12-04T15:32:47.839Z,94226.38
2022-12-04T15:35:20.828Z,94218.56
2022-12-04T15:37:47.874Z,94232.84
2022-12-04T15:40:21.053Z,94227.94
2022-12-04T15:42:47.710Z,94229.16
2022-12-04T15:45:24.658Z,94221.75
2022-12-04T15:47:57.154Z,94223.56
2022-12-04T15:50:27.864Z,94221.34
2022-12-04T15:52:59.864Z,94220.56
2022-12-04T15:55:28.729Z,94217.53
2022-12-04T15:57:59.485Z,94216.72
2022-12-04T16:00:31.088Z,94221.31
2022-12-04T16:02:58.920Z,94224.13
2022-12-04T16:05:34.916Z,94222.13
2022-12-04T16:08:03.663Z,94219.91
2022-12-04T16:10:32.964Z,94224.94
2022-12-04T16:13:01.677Z,94233.59
2022-12-04T16:15:37.483Z,94224.94
2022-12-04T16:18:11.096Z,94233.59
2022-12-04T16:20:40.672Z,94239.63
2022-12-04T16:23:07.194Z,94241.66
2022-12-04T16:25:33.747Z,94244.66
2022-12-04T16:28:01.295Z,94247.47
2022-12-04T16:30:30.201Z,94245.44
2022-12-04T16:32:56.750Z,94246.47
2022-12-04T16:35:23.273Z,94252.28
2022-12-04T16:37:51.476Z,94256.53
2022-12-04T16:40:18.097Z,94246.84
2022-12-04T16:42:44.773Z,94242.44
2022-12-04T16:45:22.267Z,94247.44
2022-12-04T16:47:49.112Z,94245.84
2022-12-04T16:50:15.815Z,94247.50
2022-12-04T16:52:42.386Z,94234.41
2022-12-04T16:55:18.062Z,94245.44
2022-12-04T16:57:44.609Z,94255.50
2022-12-04T17:00:13.257Z,94246.44
2022-12-04T17:02:40.040Z,94233.16
2022-12-04T17:05:07.144Z,94229.94
2022-12-04T17:07:33.760Z,94233.38
2022-12-04T17:10:00.306Z,94236.78
2022-12-04T17:12:28.368Z,94232.16
2022-12-04T17:14:55.316Z,94222.31
2022-12-04T17:17:22.040Z,94220.53
2022-12-04T17:19:48.677Z,94227.53
2022-12-04T17:22:16.187Z,94228.72
2022-12-04T17:24:49.104Z,94238.22
2022-12-04T17:27:15.770Z,94224.28
2022-12-04T17:29:43.635Z,94234.38
2022-12-04T17:32:10.183Z,94232.38
2022-12-04T17:34:36.865Z,94233.16
2022-12-04T17:37:03.437Z,94228.13
2022-12-04T17:39:29.961Z,94226.31
2022-12-04T17:41:56.583Z,94228.94
2022-12-04T17:44:23.331Z,94230.75
2022-12-04T17:46:51.775Z,94232.38
2022-12-04T17:49:18.337Z,94238.41
2022-12-04T17:51:45.304Z,94227.94
2022-12-04T17:54:12.310Z,94236.59
2022-12-04T17:56:42.257Z,94234.78
2022-12-04T17:59:11.240Z,94235.59
2022-12-04T18:01:37.913Z,94236.38
2022-12-04T18:04:09.000Z,94246.84
2022-12-04T18:06:37.515Z,94236.00
2022-12-04T18:09:04.569Z,94238.00
2022-12-04T18:11:34.231Z,94232.81
2022-12-04T18:14:08.561Z,94238.88
2022-12-04T18:16:40.372Z,94241.22
2022-12-04T18:19:08.378Z,94230.16
2022-12-04T18:21:35.049Z,94225.53
2022-12-04T18:24:03.454Z,94231.75
2022-12-04T18:26:34.223Z,94227.31
2022-12-04T18:29:00.781Z,94231.75
2022-12-04T18:31:27.408Z,94236.78
2022-12-04T18:33:54.068Z,94223.38
2022-12-04T18:36:23.993Z,94235.59
2022-12-04T18:38:54.406Z,94241.81
2022-12-04T18:41:21.639Z,94236.97
2022-12-04T18:43:48.174Z,94247.44
2022-12-04T18:46:16.665Z,94255.31
2022-12-04T18:48:44.760Z,94255.31
2022-12-04T18:51:16.682Z,94261.34
2022-12-04T18:53:44.681Z,94275.00
2022-12-04T18:56:11.253Z,94276.06
2022-12-04T18:58:37.838Z,94277.66
2022-12-04T19:01:05.877Z,94278.66
2022-12-04T19:03:32.788Z,94284.31
2022-12-04T19:05:59.340Z,94294.97
2022-12-04T19:08:31.393Z,94291.16
2022-12-04T19:11:07.354Z,94287.72
2022-12-04T19:13:34.451Z,94293.97
2022-12-04T19:16:01.795Z,94296.59
2022-12-04T19:18:29.691Z,94302.84
2022-12-04T19:20:56.785Z,94305.66
2022-12-04T19:23:23.359Z,94315.53
2022-12-04T19:25:54.689Z,94313.50
2022-12-04T19:28:23.054Z,94312.88
2022-12-04T19:30:49.628Z,94316.72
2022-12-04T19:33:16.261Z,94317.94
2022-12-04T19:35:43.429Z,94319.94
2022-12-04T19:38:10.033Z,94322.56
2022-12-04T19:40:36.622Z,94322.34
2022-12-04T19:43:03.384Z,94342.50
2022-12-04T19:45:31.385Z,94344.69
2022-12-04T19:47:57.931Z,94348.53
2022-12-04T19:50:24.538Z,94358.00
2022-12-04T19:52:51.104Z,94358.22
2022-12-04T19:55:17.797Z,94357.69
2022-12-04T19:57:44.314Z,94371.41
2022-12-04T20:00:11.518Z,94366.34
2022-12-04T20:02:39.474Z,94379.03
2022-12-04T20:05:06.689Z,94373.25
2022-12-04T20:07:33.266Z,94361.59
2022-12-04T20:10:00.257Z,94374.25
2022-12-04T20:12:26.991Z,94370.25
2022-12-04T20:14:53.844Z,94369.81
2022-12-04T20:17:20.416Z,94371.94
2022-12-04T20:19:48.383Z,94379.09
2022-12-04T20:22:14.917Z,94362.81
2022-12-04T20:24:41.487Z,94370.28
2022-12-04T20:27:07.983Z,94374.50
2022-12-04T20:29:34.492Z,94378.53
2022-12-04T20:32:01.271Z,94364.66
2022-12-04T20:34:27.880Z,94374.72
2022-12-04T20:36:55.861Z,94387.78
2022-12-04T20:39:22.512Z,94380.16
2022-12-04T20:41:49.138Z,94378.72
2022-12-04T20:44:19.082Z,94372.69
2022-12-04T20:46:45.835Z,94369.06
2022-12-04T20:49:20.846Z,94372.50
2022-12-04T20:51:49.436Z,94370.06
2022-12-04T20:54:19.318Z,94368.06
2022-12-04T20:56:48.531Z,94360.78
2022-12-04T20:59:16.824Z,94374.91
2022-12-04T21:01:43.558Z,94368.47
2022-12-04T21:04:10.769Z,94360.41
2022-12-04T21:06:39.323Z,94369.88
2022-12-04T21:09:08.115Z,94366.44
2022-12-04T21:11:38.934Z,94359.41
2022-12-04T21:14:26.139Z,94365.41
2022-12-04T21:16:52.724Z,94368.41
2022-12-04T21:19:21.619Z,94361.59
2022-12-04T21:21:49.214Z,94368.31
2022-12-04T21:24:18.806Z,94368.44
2022-12-04T21:26:47.176Z,94375.25
2022-12-04T21:29:14.193Z,94355.22
2022-12-04T21:31:41.263Z,94362.19
2022-12-04T21:34:10.117Z,94356.38
2022-12-04T21:36:36.768Z,94368.47
2022-12-04T21:39:04.450Z,94371.25
2022-12-04T21:41:51.305Z,94369.66
2022-12-04T21:44:21.132Z,94381.97
2022-12-04T21:46:48.089Z,94379.34
2022-12-04T21:49:15.568Z,94387.78
2022-12-04T21:51:59.072Z,94387.00
2022-12-04T21:54:26.488Z,94404.09
2022-12-04T21:56:53.479Z,94407.72
2022-12-04T21:59:21.478Z,94419.63
2022-12-04T22:01:48.219Z,94429.84
2022-12-04T22:04:15.317Z,94434.69
2022-12-04T22:06:42.195Z,94439.53
2022-12-04T22:09:10.752Z,94446.34
2022-12-04T22:11:37.883Z,94455.25
2022-12-04T22:14:04.714Z,94458.28
2022-12-04T22:16:36.895Z,94458.06
2022-12-04T22:19:06.620Z,94465.94
2022-12-04T22:21:33.142Z,94460.09
2022-12-04T22:24:02.128Z,94459.50
2022-12-04T22:26:30.080Z,94458.41
2022-12-04T22:28:57.476Z,94457.94
2022-12-04T22:31:26.222Z,94450.97
2022-12-04T22:33:55.727Z,94464.72
2022-12-04T22:36:23.909Z,94455.66
2022-12-04T22:39:09.906Z,94462.31
2022-12-04T22:41:37.285Z,94454.06
2022-12-04T22:44:04.317Z,94451.44
2022-12-04T22:46:30.933Z,94461.91
2022-12-04T22:48:59.929Z,94453.03
2022-12-04T22:51:27.279Z,94442.16
2022-12-04T22:53:55.332Z,94450.63
2022-12-04T22:56:26.463Z,94447.81
2022-12-04T22:58:54.051Z,94448.81
2022-12-04T23:01:23.850Z,94441.75
2022-12-04T23:03:51.200Z,94455.66
2022-12-04T23:06:21.160Z,94451.22
2022-12-04T23:08:48.482Z,94462.91
2022-12-04T23:11:17.702Z,94473.97
2022-12-04T23:13:49.583Z,94465.28
2022-12-04T23:16:20.066Z,94471.78
2022-12-04T23:18:47.716Z,94462.41
2022-12-04T23:21:15.651Z,94461.63
2022-12-04T23:23:46.937Z,94453.63
2022-12-04T23:26:16.514Z,94446.69
2022-12-04T23:28:43.425Z,94447.09
2022-12-04T23:31:10.939Z,94440.91
2022-12-04T23:33:38.317Z,94470.56
2022-12-04T23:36:06.297Z,94475.72
2022-12-04T23:38:35.445Z,94479.00
2022-12-04T23:41:04.333Z,94464.75
2022-12-04T23:43:30.895Z,94435.63
2022-12-04T23:45:57.420Z,94447.75
2022-12-04T23:48:24.054Z,94453.00
2022-12-04T23:50:51.164Z,94458.28
2022-12-04T23:53:17.731Z,94455.25
2022-12-04T23:55:44.307Z,94463.97
2022-12-04T23:58:12.177Z,94447.47
